createdAt,value
2019-02-08T00:02:23.647Z,101105.10
2019-02-08T00:05:14.367Z,101105.10
2019-02-08T00:08:04.806Z,101102.03
2019-02-08T00:10:55.749Z,101108.75
2019-02-08T00:13:46.159Z,101102.45
2019-02-08T00:16:36.618Z,101097.89
2019-02-08T00:19:28.086Z,101097.41
2019-02-08T00:22:18.638Z,101098.81
2019-02-08T00:25:12.033Z,101095.20
2019-02-08T00:28:02.659Z,101091.45
2019-02-08T00:30:53.126Z,101088.64
2019-02-08T00:33:43.595Z,101095.69
2019-02-08T00:36:33.999Z,101089.05
2019-02-08T00:39:24.319Z,101089.51
2019-02-08T00:42:14.822Z,101088.11
2019-02-08T00:45:06.091Z,101085.30
2019-02-08T00:47:56.972Z,101091.48
2019-02-08T00:50:47.374Z,101086.09
2019-02-08T00:53:37.740Z,101089.16
2019-02-08T00:56:28.221Z,101085.17
2019-02-08T00:59:18.543Z,101078.83
2019-02-08T01:02:09.016Z,101077.95
2019-02-08T01:04:59.273Z,101075.45
2019-02-08T01:07:49.555Z,101071.17
2019-02-08T01:10:39.677Z,101068.52
2019-02-08T01:13:30.175Z,101073.11
2019-02-08T01:16:20.704Z,101068.97
2019-02-08T01:19:11.619Z,101079.06
2019-02-08T01:22:04.948Z,101070.94
2019-02-08T01:24:55.913Z,101082.02
2019-02-08T01:27:46.231Z,101078.57
2019-02-08T01:30:37.689Z,101070.94
2019-02-08T01:33:28.163Z,101064.37
2019-02-08T01:36:18.565Z,101064.83
2019-02-08T01:39:09.150Z,101069.35
2019-02-08T01:41:59.609Z,101062.17
2019-02-08T01:44:50.022Z,101067.28
2019-02-08T01:47:41.288Z,101064.45
2019-02-08T01:50:31.655Z,101067.66
2019-02-08T01:53:22.985Z,101068.13
2019-02-08T01:56:13.524Z,101064.77
2019-02-08T01:59:04.072Z,101066.49
2019-02-08T02:01:54.702Z,101061.56
2019-02-08T02:04:45.050Z,101054.86
2019-02-08T02:07:35.594Z,101052.50
2019-02-08T02:10:28.127Z,101057.03
2019-02-08T02:13:18.178Z,101048.13
2019-02-08T02:16:08.982Z,101047.91
2019-02-08T02:19:00.369Z,101044.84
2019-02-08T02:21:50.739Z,101045.80
2019-02-08T02:24:42.119Z,101041.17
2019-02-08T02:27:32.594Z,101040.98
2019-02-08T02:30:26.343Z,101036.92
2019-02-08T02:33:17.579Z,101037.34
2019-02-08T02:36:10.856Z,101041.38
2019-02-08T02:39:01.178Z,101029.37
2019-02-08T02:41:52.782Z,101037.19
2019-02-08T02:44:43.238Z,101035.06
2019-02-08T02:47:33.427Z,101037.63
2019-02-08T02:50:24.847Z,101039.43
2019-02-08T02:53:15.310Z,101035.22
2019-02-08T02:56:05.588Z,101029.29
2019-02-08T02:58:56.121Z,101029.27
2019-02-08T03:01:47.652Z,101031.05
2019-02-08T03:04:38.203Z,101031.52
2019-02-08T03:07:28.746Z,101027.86
2019-02-08T03:10:19.339Z,101033.63
2019-02-08T03:13:09.544Z,101035.58
2019-02-08T03:15:59.958Z,101035.99
2019-02-08T03:18:50.535Z,101038.16
2019-02-08T03:21:41.036Z,101031.52
2019-02-08T03:24:31.473Z,101040.20
2019-02-08T03:27:22.427Z,101027.78
2019-02-08T03:30:16.162Z,101034.27
2019-02-08T03:33:06.417Z,101029.49
2019-02-08T03:35:57.169Z,101032.92
2019-02-08T03:38:47.702Z,101040.89
2019-02-08T03:41:38.127Z,101040.69
2019-02-08T03:44:28.712Z,101041.53
2019-02-08T03:47:19.209Z,101041.22
2019-02-08T03:50:11.743Z,101040.44
2019-02-08T03:53:02.068Z,101038.31
2019-02-08T03:55:58.138Z,101046.20
2019-02-08T03:58:44.035Z,101041.22
2019-02-08T04:01:34.314Z,101038.49
2019-02-08T04:04:24.817Z,101042.02
2019-02-08T04:07:15.034Z,101042.62
2019-02-08T04:10:06.613Z,101041.66
2019-02-08T04:12:56.671Z,101044.58
2019-02-08T04:15:47.419Z,101044.00
2019-02-08T04:18:37.867Z,101045.80
2019-02-08T04:21:28.245Z,101047.13
2019-02-08T04:24:18.738Z,101050.80
2019-02-08T04:27:08.881Z,101047.50
2019-02-08T04:29:59.225Z,101047.20
2019-02-08T04:32:49.730Z,101041.40
2019-02-08T04:35:40.205Z,101048.53
2019-02-08T04:38:31.658Z,101040.25
2019-02-08T04:41:21.893Z,101041.09
2019-02-08T04:44:12.410Z,101040.76
2019-02-08T04:47:05.129Z,101042.70
2019-02-08T04:49:55.339Z,101049.64
2019-02-08T04:52:45.531Z,101053.28
2019-02-08T04:55:36.453Z,101046.27
2019-02-08T04:58:35.134Z,101053.81
2019-02-08T05:01:19.239Z,101057.03
2019-02-08T05:04:09.909Z,101057.29
2019-02-08T05:07:00.126Z,101061.53
2019-02-08T05:09:50.627Z,101058.19
2019-02-08T05:12:41.235Z,101060.41
2019-02-08T05:15:31.534Z,101066.80
2019-02-08T05:18:22.067Z,101066.02
2019-02-08T05:21:12.467Z,101066.02
2019-02-08T05:24:02.828Z,101086.10
2019-02-08T05:26:53.231Z,101081.44
2019-02-08T05:29:43.510Z,101084.24
2019-02-08T05:32:34.064Z,101093.42
2019-02-08T05:35:24.715Z,101090.91
2019-02-08T05:38:14.821Z,101090.91
2019-02-08T05:41:05.323Z,101090.27
2019-02-08T05:43:55.688Z,101083.45
2019-02-08T05:46:47.202Z,101076.94
2019-02-08T05:49:37.455Z,101081.56
2019-02-08T05:52:27.693Z,101080.58
2019-02-08T05:55:19.861Z,101084.02
2019-02-08T05:58:10.437Z,101082.28
2019-02-08T06:01:00.823Z,101081.33
2019-02-08T06:03:51.372Z,101070.03
2019-02-08T06:06:41.854Z,101073.16
2019-02-08T06:09:32.574Z,101078.30
2019-02-08T06:12:22.923Z,101077.15
2019-02-08T06:15:15.202Z,101079.00
2019-02-08T06:18:08.848Z,101079.80
2019-02-08T06:21:00.285Z,101095.32
2019-02-08T06:23:53.233Z,101084.84
2019-02-08T06:26:43.844Z,101088.19
2019-02-08T06:29:34.422Z,101094.10
2019-02-08T06:32:25.015Z,101095.78
2019-02-08T06:35:16.418Z,101093.69
2019-02-08T06:38:07.363Z,101104.23
2019-02-08T06:40:57.707Z,101092.25
2019-02-08T06:43:48.412Z,101094.83
2019-02-08T06:46:38.517Z,101095.02
2019-02-08T06:49:28.863Z,101099.57
2019-02-08T06:52:18.956Z,101102.53
2019-02-08T06:55:11.154Z,101106.10
2019-02-08T06:58:18.531Z,101110.88
2019-02-08T07:01:17.924Z,101108.41
2019-02-08T07:04:36.321Z,101110.99
2019-02-08T07:07:35.802Z,101107.87
2019-02-08T07:10:54.093Z,101114.52
2019-02-08T07:14:12.083Z,101110.29
2019-02-08T07:17:21.379Z,101117.09
2019-02-08T07:20:22.467Z,101113.25
2019-02-08T07:23:23.949Z,101114.89
2019-02-08T07:26:33.195Z,101117.29
2019-02-08T07:29:45.270Z,101116.59
2019-02-08T07:32:51.764Z,101116.17
2019-02-08T07:35:59.257Z,101117.86
2019-02-08T07:39:05.737Z,101112.14
2019-02-08T07:42:15.474Z,101122.95
2019-02-08T07:45:32.108Z,101118.98
2019-02-08T07:48:41.731Z,101121.41
2019-02-08T07:51:56.965Z,101126.74
2019-02-08T07:55:08.804Z,101125.59
2019-02-08T07:58:19.741Z,101123.69
2019-02-08T08:01:19.190Z,101123.80
2019-02-08T08:04:25.595Z,101127.72
2019-02-08T08:07:40.755Z,101133.91
2019-02-08T08:11:08.371Z,101129.83
2019-02-08T08:14:16.198Z,101131.30
2019-02-08T08:17:27.879Z,101130.69
2019-02-08T08:20:43.414Z,101134.67
2019-02-08T08:23:41.716Z,101136.97
2019-02-08T08:27:03.287Z,101140.80
2019-02-08T08:30:13.185Z,101138.85
2019-02-08T08:33:12.295Z,101139.72
2019-02-08T08:36:57.719Z,101145.75
2019-02-08T08:40:16.011Z,101144.63
2019-02-08T08:43:50.584Z,101154.66
2019-02-08T08:47:30.841Z,101146.83
2019-02-08T08:50:52.955Z,101155.68
2019-02-08T08:54:26.764Z,101151.53
2019-02-08T08:57:27.906Z,101144.63
2019-02-08T09:00:55.570Z,101154.60
2019-02-08T09:04:20.394Z,101155.22
2019-02-08T09:07:58.988Z,101157.50
2019-02-08T09:11:33.310Z,101157.12
2019-02-08T09:15:02.073Z,101156.61
2019-02-08T09:18:39.927Z,101162.56
2019-02-08T09:21:55.526Z,101168.97
2019-02-08T09:25:16.468Z,101167.21
2019-02-08T09:28:46.426Z,101164.05
2019-02-08T09:32:28.471Z,101169.56
2019-02-08T09:35:54.330Z,101169.47
2019-02-08T09:39:10.073Z,101173.62
2019-02-08T09:42:27.251Z,101171.27
2019-02-08T09:45:41.542Z,101169.03
2019-02-08T09:49:21.007Z,101167.98
2019-02-08T09:52:55.907Z,101165.33
2019-02-08T09:56:28.654Z,101163.08
2019-02-08T10:00:04.976Z,101160.10
2019-02-08T10:03:38.218Z,101159.91
2019-02-08T10:07:25.396Z,101159.05
2019-02-08T10:11:05.094Z,101155.52
2019-02-08T10:14:48.567Z,101152.53
2019-02-08T10:18:16.203Z,101151.36
2019-02-08T10:21:33.195Z,101139.95
2019-02-08T10:25:09.774Z,101144.14
2019-02-08T10:28:40.786Z,101144.70
2019-02-08T10:32:11.091Z,101147.91
2019-02-08T10:35:38.471Z,101139.05
2019-02-08T10:39:11.630Z,101140.75
2019-02-08T10:42:29.661Z,101141.56
2019-02-08T10:45:51.852Z,101144.94
2019-02-08T10:49:41.698Z,101132.10
2019-02-08T10:53:15.343Z,101140.88
2019-02-08T10:56:39.110Z,101130.94
2019-02-08T11:00:10.131Z,101131.48
2019-02-08T11:03:42.721Z,101123.30
2019-02-08T11:07:27.735Z,101120.21
2019-02-08T11:11:04.847Z,101120.99
2019-02-08T11:14:51.830Z,101112.94
2019-02-08T11:18:22.088Z,101092.52
2019-02-08T11:21:12.006Z,101113.36
2019-02-08T11:24:02.078Z,101110.69
2019-02-08T11:26:52.617Z,101105.13
2019-02-08T11:29:43.146Z,101108.87
2019-02-08T11:32:43.319Z,101112.15
2019-02-08T11:35:25.378Z,101111.73
2019-02-08T11:38:16.786Z,101105.92
2019-02-08T11:41:07.066Z,101102.20
2019-02-08T11:43:57.575Z,101103.45
2019-02-08T11:46:48.063Z,101109.98
2019-02-08T11:49:38.461Z,101109.66
2019-02-08T11:52:29.301Z,101105.99
2019-02-08T11:55:19.814Z,101106.91
2019-02-08T11:58:10.660Z,101101.36
2019-02-08T12:01:01.037Z,101095.84
2019-02-08T12:03:51.514Z,101097.45
2019-02-08T12:06:41.898Z,101100.12
2019-02-08T12:09:32.438Z,101097.45
2019-02-08T12:12:22.959Z,101091.34
2019-02-08T12:15:14.891Z,101090.97
2019-02-08T12:18:05.509Z,101085.70
2019-02-08T12:20:55.998Z,101094.66
2019-02-08T12:23:47.432Z,101085.97
2019-02-08T12:26:38.337Z,101075.16
2019-02-08T12:29:28.747Z,101071.57
2019-02-08T12:32:19.320Z,101078.70
2019-02-08T12:35:10.306Z,101079.55
2019-02-08T12:38:00.535Z,101078.61
2019-02-08T12:40:51.388Z,101078.61
2019-02-08T12:43:41.859Z,101081.73
2019-02-08T12:46:32.296Z,101078.38
2019-02-08T12:49:23.696Z,101076.39
2019-02-08T12:52:14.109Z,101074.07
2019-02-08T12:55:04.386Z,101069.74
2019-02-08T12:57:54.703Z,101066.84
2019-02-08T13:00:45.236Z,101074.52
2019-02-08T13:03:35.639Z,101064.39
2019-02-08T13:06:26.387Z,101075.14
2019-02-08T13:09:16.842Z,101069.86
2019-02-08T13:12:07.362Z,101081.09
2019-02-08T13:14:57.773Z,101081.59
2019-02-08T13:17:48.312Z,101079.77
2019-02-08T13:20:40.254Z,101084.32
2019-02-08T13:23:30.617Z,101075.95
2019-02-08T13:26:21.094Z,101081.83
2019-02-08T13:29:11.590Z,101076.59
2019-02-08T13:32:01.863Z,101082.42
2019-02-08T13:34:52.872Z,101075.63
2019-02-08T13:37:43.388Z,101077.64
2019-02-08T13:40:34.215Z,101071.58
2019-02-08T13:43:25.072Z,101070.51
2019-02-08T13:46:15.456Z,101067.61
2019-02-08T13:49:05.849Z,101067.77
2019-02-08T13:51:56.559Z,101068.84
2019-02-08T13:54:46.943Z,101072.34
2019-02-08T13:57:37.217Z,101068.73
2019-02-08T14:00:29.473Z,101068.61
2019-02-08T14:03:21.301Z,101067.50
2019-02-08T14:06:11.703Z,101066.02
2019-02-08T14:09:02.168Z,101068.50
2019-02-08T14:11:53.853Z,101070.08
2019-02-08T14:14:44.332Z,101075.60
2019-02-08T14:17:34.582Z,101076.66
2019-02-08T14:20:25.321Z,101072.47
2019-02-08T14:23:16.004Z,101080.23
2019-02-08T14:26:06.713Z,101081.56
2019-02-08T14:28:57.331Z,101082.89
2019-02-08T14:31:47.533Z,101083.39
2019-02-08T14:34:43.409Z,101080.31
2019-02-08T14:37:29.732Z,101078.15
2019-02-08T14:40:21.502Z,101077.75
2019-02-08T14:43:12.049Z,101075.84
2019-02-08T14:46:02.496Z,101079.39
2019-02-08T14:48:52.970Z,101077.84
2019-02-08T14:51:43.511Z,101077.93
2019-02-08T14:54:34.342Z,101073.28
2019-02-08T14:57:24.817Z,101070.61
2019-02-08T15:00:17.516Z,101069.24
2019-02-08T15:03:07.766Z,101067.26
2019-02-08T15:05:58.737Z,101066.55
2019-02-08T15:08:49.417Z,101067.41
2019-02-08T15:11:39.761Z,101065.20
2019-02-08T15:14:30.204Z,101062.27
2019-02-08T15:17:20.666Z,101064.98
2019-02-08T15:20:15.475Z,101064.84
2019-02-08T15:23:06.381Z,101060.24
2019-02-08T15:25:56.490Z,101062.00
2019-02-08T15:28:46.999Z,101059.11
2019-02-08T15:31:37.507Z,101065.32
2019-02-08T15:34:27.957Z,101062.38
2019-02-08T15:37:18.456Z,101066.24
2019-02-08T15:40:11.500Z,101063.36
2019-02-08T15:43:01.801Z,101067.91
2019-02-08T15:45:55.039Z,101064.39
2019-02-08T15:48:45.536Z,101067.34
2019-02-08T15:51:35.879Z,101071.05
2019-02-08T15:54:26.313Z,101069.30
2019-02-08T15:57:16.863Z,101063.64
2019-02-08T16:00:07.441Z,101065.73
2019-02-08T16:02:58.079Z,101071.20
2019-02-08T16:05:48.412Z,101063.70
2019-02-08T16:08:39.245Z,101079.42
2019-02-08T16:11:29.715Z,101090.08
2019-02-08T16:14:20.114Z,101087.50
2019-02-08T16:17:10.220Z,101090.59
2019-02-08T16:20:00.627Z,101090.59
2019-02-08T16:22:51.034Z,101091.16
2019-02-08T16:25:41.965Z,101091.78
2019-02-08T16:28:32.102Z,101095.38
2019-02-08T16:31:22.802Z,101095.63
2019-02-08T16:34:13.566Z,101094.06
2019-02-08T16:37:03.900Z,101094.05
2019-02-08T16:39:54.367Z,101093.52
2019-02-08T16:42:44.950Z,101104.66
2019-02-08T16:45:35.883Z,101107.23
2019-02-08T16:48:26.142Z,101106.28
2019-02-08T16:51:16.699Z,101117.89
2019-02-08T16:54:07.163Z,101117.89
2019-02-08T16:56:57.522Z,101124.45
2019-02-08T16:59:48.175Z,101097.77
2019-02-08T17:02:38.731Z,101128.04
2019-02-08T17:05:29.914Z,101136.65
2019-02-08T17:08:20.514Z,101133.06
2019-02-08T17:11:11.059Z,101135.89
2019-02-08T17:14:01.459Z,101133.77
2019-02-08T17:16:51.966Z,101132.66
2019-02-08T17:19:42.274Z,101135.10
2019-02-08T17:22:33.080Z,101135.73
2019-02-08T17:25:23.222Z,101139.02
2019-02-08T17:28:13.709Z,101137.30
2019-02-08T17:31:03.879Z,101131.98
2019-02-08T17:33:54.135Z,101131.57
2019-02-08T17:36:44.435Z,101139.09
2019-02-08T17:39:37.506Z,101145.75
2019-02-08T17:42:28.055Z,101143.00
2019-02-08T17:45:19.527Z,101147.95
2019-02-08T17:48:12.173Z,101152.95
2019-02-08T17:51:02.771Z,101155.61
2019-02-08T17:53:53.257Z,101149.50
2019-02-08T17:56:43.657Z,101149.82
2019-02-08T17:59:34.075Z,101159.21
2019-02-08T18:02:24.237Z,101152.77
2019-02-08T18:05:14.605Z,101156.59
2019-02-08T18:08:06.172Z,101154.02
2019-02-08T18:10:56.393Z,101157.79
2019-02-08T18:13:46.843Z,101159.33
2019-02-08T18:16:38.146Z,101158.33
2019-02-08T18:19:28.448Z,101162.38
2019-02-08T18:22:18.746Z,101156.57
2019-02-08T18:25:10.278Z,101164.71
2019-02-08T18:28:00.627Z,101157.25
2019-02-08T18:30:50.996Z,101164.90
2019-02-08T18:33:41.439Z,101162.80
2019-02-08T18:36:31.881Z,101169.68
2019-02-08T18:39:22.352Z,101173.75
2019-02-08T18:42:12.583Z,101171.73
2019-02-08T18:45:02.932Z,101173.08
2019-02-08T18:47:53.362Z,101173.08
2019-02-08T18:50:46.551Z,101176.45
2019-02-08T18:53:37.457Z,101168.60
2019-02-08T18:56:27.646Z,101174.87
2019-02-08T18:59:18.199Z,101180.05
2019-02-08T19:02:08.844Z,101177.17
2019-02-08T19:04:59.459Z,101185.63
2019-02-08T19:07:49.951Z,101191.67
2019-02-08T19:10:40.480Z,101182.20
2019-02-08T19:13:30.854Z,101182.84
2019-02-08T19:16:21.232Z,101186.54
2019-02-08T19:19:15.160Z,101190.53
2019-02-08T19:22:05.666Z,101200.47
2019-02-08T19:24:59.014Z,101200.52
2019-02-08T19:27:49.398Z,101203.73
2019-02-08T19:30:40.231Z,101210.40
2019-02-08T19:33:30.687Z,101207.01
2019-02-08T19:36:21.095Z,101207.94
2019-02-08T19:39:14.257Z,101210.48
2019-02-08T19:42:04.329Z,101214.61
2019-02-08T19:44:54.752Z,101215.86
2019-02-08T19:47:45.242Z,101207.73
2019-02-08T19:50:37.752Z,101215.00
2019-02-08T19:53:28.122Z,101213.45
2019-02-08T19:56:19.538Z,101222.31
2019-02-08T19:59:09.957Z,101224.27
2019-02-08T20:02:00.508Z,101220.89
2019-02-08T20:04:50.582Z,101220.73
2019-02-08T20:07:41.025Z,101220.03
2019-02-08T20:10:33.058Z,101222.23
2019-02-08T20:13:23.587Z,101225.77
2019-02-08T20:16:14.052Z,101224.91
2019-02-08T20:19:04.315Z,101230.77
2019-02-08T20:21:55.755Z,101229.27
2019-02-08T20:24:45.980Z,101226.41
2019-02-08T20:27:36.358Z,101222.41
2019-02-08T20:30:26.955Z,101226.78
2019-02-08T20:33:17.455Z,101224.36
2019-02-08T20:36:08.222Z,101216.84
2019-02-08T20:38:58.342Z,101229.16
2019-02-08T20:41:48.655Z,101219.83
2019-02-08T20:44:39.074Z,101220.03
2019-02-08T20:47:29.259Z,101216.37
2019-02-08T20:50:19.814Z,101217.79
2019-02-08T20:53:10.119Z,101210.97
2019-02-08T20:56:00.504Z,101216.13
2019-02-08T20:58:51.052Z,101210.19
2019-02-08T21:01:41.547Z,101216.05
2019-02-08T21:04:32.312Z,101223.25
2019-02-08T21:07:22.519Z,101217.55
2019-02-08T21:10:15.007Z,101216.59
2019-02-08T21:13:06.125Z,101217.47
2019-02-08T21:15:56.779Z,101208.69
2019-02-08T21:18:46.916Z,101211.77
2019-02-08T21:21:37.175Z,101209.80
2019-02-08T21:24:27.561Z,101213.17
2019-02-08T21:27:18.003Z,101209.86
2019-02-08T21:30:10.110Z,101209.81
2019-02-08T21:33:00.540Z,101218.72
2019-02-08T21:35:50.738Z,101216.30
2019-02-08T21:38:41.028Z,101210.34
2019-02-08T21:41:31.541Z,101211.90
2019-02-08T21:44:22.212Z,101213.93
2019-02-08T21:47:12.418Z,101216.84
2019-02-08T21:50:02.696Z,101213.64
2019-02-08T21:52:53.135Z,101214.09
2019-02-08T21:55:43.437Z,101214.02
2019-02-08T21:58:33.879Z,101217.55
2019-02-08T22:01:24.034Z,101213.85
2019-02-08T22:04:14.508Z,101214.64
2019-02-08T22:07:04.948Z,101213.55
2019-02-08T22:09:56.504Z,101211.89
2019-02-08T22:12:47.261Z,101215.05
2019-02-08T22:15:38.378Z,101216.59
2019-02-08T22:18:29.116Z,101220.22
2019-02-08T22:21:19.598Z,101219.89
2019-02-08T22:24:09.750Z,101223.97
2019-02-08T22:27:00.250Z,101223.87
2019-02-08T22:29:50.788Z,101231.94
2019-02-08T22:32:41.221Z,101224.58
2019-02-08T22:35:31.865Z,101221.70
2019-02-08T22:38:22.350Z,101224.82
2019-02-08T22:41:12.788Z,101228.27
2019-02-08T22:44:02.991Z,101231.21
2019-02-08T22:46:53.476Z,101234.19
2019-02-08T22:49:43.885Z,101231.83
2019-02-08T22:52:34.720Z,101238.44
2019-02-08T22:55:26.860Z,101236.59
2019-02-08T22:58:17.544Z,101236.67
2019-02-08T23:01:30.965Z,101236.67
2019-02-08T23:04:23.324Z,101235.63
2019-02-08T23:07:13.534Z,101233.67
2019-02-08T23:10:04.291Z,101241.01
2019-02-08T23:12:54.863Z,101241.05
2019-02-08T23:15:45.356Z,101239.06
2019-02-08T23:18:35.707Z,101241.06
2019-02-08T23:21:26.130Z,101242.69
2019-02-08T23:24:16.320Z,101235.73
2019-02-08T23:27:06.892Z,101223.09
2019-02-08T23:29:58.260Z,101237.70
2019-02-08T23:32:48.554Z,101244.10
2019-02-08T23:35:43.084Z,101244.25
2019-02-08T23:38:30.980Z,101239.63
2019-02-08T23:41:21.436Z,101242.77
2019-02-08T23:44:11.741Z,101244.73
2019-02-08T23:47:02.316Z,101244.20
2019-02-08T23:49:52.723Z,101247.78
2019-02-08T23:52:43.214Z,101255.56
2019-02-08T23:55:34.015Z,101253.89
2019-02-08T23:58:24.445Z,101253.67
